Time;durP1;ratioP1;P1;durP2;ratioP2;P2;SDS_P1;SDS_P2;PMS_P1;PMS_P2;Temp;Humidity;BMP_temperature;BMP_pressure;BME280_temperature;BME280_humidity;BME280_pressure;Samples;Min_cycle;Max_cycle;Signal;HPM_P1;HPM_P2
2021/06/25 00:01:43;;;;;;;13.30;12.00;;;15.30;99.90;;;;;;4918894;29;20457;-76
2021/06/25 00:04:11;;;;;;;11.70;10.60;;;15.30;99.90;;;;;;4901929;29;20514;-75
2021/06/25 00:06:39;;;;;;;14.30;12.97;;;15.20;99.90;;;;;;4917526;29;20467;-76
2021/06/25 00:09:09;;;;;;;13.10;11.07;;;15.20;99.90;;;;;;4901706;29;20554;-75
2021/06/25 00:11:37;;;;;;;13.10;11.80;;;15.20;99.90;;;;;;4902016;29;20860;-76
2021/06/25 00:14:06;;;;;;;17.33;13.13;;;15.20;99.90;;;;;;4918718;29;20537;-76
2021/06/25 00:16:34;;;;;;;13.43;11.70;;;15.10;99.90;;;;;;4918632;29;20985;-76
2021/06/25 00:19:03;;;;;;;13.43;12.13;;;15.10;99.90;;;;;;4915943;29;20451;-76
2021/06/25 00:21:31;;;;;;;12.93;11.70;;;15.20;99.90;;;;;;4916765;29;20304;-76
2021/06/25 00:23:59;;;;;;;13.30;12.07;;;15.20;99.90;;;;;;4917263;29;20957;-76
2021/06/25 00:26:30;;;;;;;13.40;12.07;;;15.20;99.90;;;;;;4901455;29;20669;-76
2021/06/25 00:28:58;;;;;;;14.73;13.33;;;15.10;99.90;;;;;;4901327;29;20618;-76
2021/06/25 00:31:26;;;;;;;15.70;14.30;;;15.10;99.90;;;;;;4901382;29;20459;-76
2021/06/25 00:33:55;;;;;;;13.90;12.50;;;15.10;99.90;;;;;;4917068;29;20500;-76
2021/06/25 00:36:23;;;;;;;15.50;14.00;;;15.10;99.90;;;;;;4917008;29;20840;-76
2021/06/25 00:38:51;;;;;;;13.50;12.20;;;15.00;99.90;;;;;;4917189;29;20451;-76
2021/06/25 00:41:19;;;;;;;14.93;13.47;;;15.00;99.90;;;;;;4918460;29;20449;-76
2021/06/25 00:43:49;;;;;;;14.73;13.23;;;15.00;99.90;;;;;;4915759;29;20457;-77
2021/06/25 00:46:17;;;;;;;14.07;12.67;;;14.90;99.90;;;;;;4918131;29;20430;-76
2021/06/25 00:48:46;;;;;;;14.77;13.23;;;14.90;99.90;;;;;;4900920;29;20852;-76
2021/06/25 00:51:14;;;;;;;14.47;13.07;;;14.90;99.90;;;;;;4916833;29;20547;-76
2021/06/25 00:53:43;;;;;;;13.27;11.97;;;14.90;99.90;;;;;;4917979;29;20431;-76
2021/06/25 00:56:12;;;;;;;14.83;13.43;;;14.90;99.90;;;;;;4900998;29;20423;-76
2021/06/25 00:58:41;;;;;;;11.83;10.63;;;14.90;99.90;;;;;;4900841;29;20449;-76
2021/06/25 01:01:10;;;;;;;15.97;14.43;;;14.90;99.90;;;;;;4900872;29;20427;-76
2021/06/25 01:03:40;;;;;;;13.00;11.70;;;14.90;99.90;;;;;;4917757;29;20430;-76
2021/06/25 01:06:09;;;;;;;14.17;12.40;;;14.90;99.90;;;;;;4916108;29;20533;-76
2021/06/25 01:08:37;;;;;;;13.47;12.20;;;14.80;99.90;;;;;;4917482;29;20451;-76
2021/06/25 01:11:06;;;;;;;14.37;13.07;;;14.80;99.90;;;;;;4917818;29;20475;-76
2021/06/25 01:13:36;;;;;;;13.50;12.20;;;14.80;99.90;;;;;;4917679;29;20545;-76
2021/06/25 01:16:05;;;;;;;14.03;12.63;;;14.80;99.90;;;;;;4916483;29;20443;-76
2021/06/25 01:18:35;;;;;;;13.40;12.10;;;14.80;99.90;;;;;;4917767;29;20535;-75
2021/06/25 01:21:05;;;;;;;14.70;13.30;;;14.80;99.90;;;;;;4901015;29;20592;-76
2021/06/25 01:23:38;;;;;;;14.47;13.07;;;14.80;99.90;;;;;;4916177;29;20958;-76
2021/06/25 01:26:07;;;;;;;15.63;13.70;;;14.80;99.90;;;;;;4899420;29;20944;-76
2021/06/25 01:28:35;;;;;;;13.53;12.33;;;14.90;99.90;;;;;;4917270;29;20747;-76
2021/06/25 01:31:08;;;;;;;13.10;11.80;;;14.90;99.90;;;;;;4900369;29;20484;-76
2021/06/25 01:33:37;;;;;;;14.97;13.57;;;14.90;99.90;;;;;;4917267;29;20837;-76
2021/06/25 01:36:08;;;;;;;14.20;12.80;;;14.90;99.90;;;;;;4899935;29;20521;-76
2021/06/25 01:38:37;;;;;;;14.43;13.03;;;14.80;99.90;;;;;;4917300;29;20899;-76
2021/06/25 01:41:05;;;;;;;14.57;13.07;;;14.80;99.90;;;;;;4917238;29;20442;-76
2021/06/25 01:43:35;;;;;;;14.00;12.70;;;14.80;99.90;;;;;;4915900;29;20455;-76
2021/06/25 01:46:03;;;;;;;13.30;11.90;;;14.70;99.90;;;;;;4915724;29;20427;-76
2021/06/25 01:48:31;;;;;;;13.53;12.13;;;14.70;99.90;;;;;;4916983;29;20447;-76
2021/06/25 01:51:00;;;;;;;14.20;12.90;;;14.70;99.90;;;;;;4917111;29;20835;-75
2021/06/25 01:53:29;;;;;;;13.57;12.27;;;14.70;99.90;;;;;;4917059;29;20424;-76
2021/06/25 01:56:00;;;;;;;12.80;11.50;;;14.70;99.90;;;;;;4897582;29;21013;-76
2021/06/25 02:44:06;;;;;;;13.90;12.60;;;14.40;99.90;;;;;;4901227;29;20450;-74
2021/06/25 02:46:35;;;;;;;12.53;11.30;;;14.40;99.90;;;;;;4896630;29;20202;-75
2021/06/25 02:49:03;;;;;;;12.87;11.57;;;14.40;99.90;;;;;;4897939;29;20467;-75
2021/06/25 02:51:31;;;;;;;13.90;12.50;;;14.40;99.90;;;;;;4883652;29;20624;-75
2021/06/25 02:54:00;;;;;;;13.07;11.73;;;14.40;99.90;;;;;;4883666;29;20432;-74
2021/06/25 02:56:28;;;;;;;12.93;11.63;;;14.30;99.90;;;;;;4893654;29;20485;-75
2021/06/25 02:58:56;;;;;;;13.03;11.73;;;14.30;99.90;;;;;;4878985;29;20841;-74
2021/06/25 03:01:25;;;;;;;13.40;12.10;;;14.30;99.90;;;;;;4888950;29;20545;-74
2021/06/25 03:03:54;;;;;;;13.77;12.30;;;14.30;99.90;;;;;;4898533;29;20421;-74
2021/06/25 03:06:22;;;;;;;12.53;11.33;;;14.30;99.90;;;;;;4866093;29;20540;-75
2021/06/25 03:08:50;;;;;;;13.50;12.10;;;14.30;99.90;;;;;;4882650;29;20496;-74
2021/06/25 03:11:18;;;;;;;12.83;11.53;;;14.30;99.90;;;;;;4898284;29;20957;-74
2021/06/25 03:13:46;;;;;;;11.17;10.10;;;14.20;99.90;;;;;;4895670;29;20436;-74
2021/06/25 03:16:15;;;;;;;12.77;11.43;;;14.20;99.90;;;;;;4903090;29;20420;-74
2021/06/25 03:18:44;;;;;;;12.70;11.43;;;14.20;99.90;;;;;;4900898;29;20453;-75
2021/06/25 03:21:13;;;;;;;14.17;12.73;;;14.20;99.90;;;;;;4891398;29;20466;-74
2021/06/25 03:23:41;;;;;;;12.30;11.00;;;14.10;99.90;;;;;;4881900;29;20442;-74
2021/06/25 03:26:10;;;;;;;12.70;11.37;;;14.10;99.90;;;;;;4865266;29;21051;-74
2021/06/25 03:28:38;;;;;;;13.03;11.67;;;14.10;99.90;;;;;;4874565;29;20453;-74
2021/06/25 03:31:07;;;;;;;12.90;11.50;;;14.10;99.90;;;;;;4885493;29;20454;-74
2021/06/25 03:33:36;;;;;;;12.90;11.60;;;14.10;99.90;;;;;;4895538;29;20485;-74
2021/06/25 03:36:06;;;;;;;13.57;12.30;;;14.10;99.90;;;;;;4904644;29;20474;-75
2021/06/25 03:38:35;;;;;;;13.40;12.00;;;14.10;99.90;;;;;;4905324;29;20503;-74
2021/06/25 03:41:03;;;;;;;13.20;11.80;;;14.10;99.90;;;;;;4904014;29;20445;-74
2021/06/25 03:43:31;;;;;;;13.23;12.00;;;14.10;99.90;;;;;;4905387;29;20454;-74
2021/06/25 03:46:00;;;;;;;15.43;13.10;;;14.00;99.90;;;;;;4897464;29;20780;-75
2021/06/25 03:48:28;;;;;;;13.33;11.97;;;14.00;99.90;;;;;;4884518;29;20458;-75
2021/06/25 03:50:56;;;;;;;13.27;11.90;;;14.00;99.90;;;;;;4883243;29;20856;-74
2021/06/25 03:53:26;;;;;;;15.38;13.88;;;14.00;99.90;;;;;;4881056;29;20437;-74
2021/06/25 03:56:12;;;;;;;16.03;14.33;;;14.00;99.90;;;;;;4884190;29;20292;-74
2021/06/25 03:58:43;;;;;;;16.70;15.10;;;14.00;99.90;;;;;;4900310;29;20462;-75
2021/06/25 04:01:16;;;;;;;17.07;14.30;;;14.00;99.90;;;;;;4900399;29;20875;-75
2021/06/25 04:03:44;;;;;;;15.77;14.20;;;14.00;99.90;;;;;;4903887;29;20519;-74
2021/06/25 04:06:12;;;;;;;22.90;20.10;;;14.00;99.90;;;;;;4883080;29;20420;-74
2021/06/25 04:08:42;;;;;;;30.47;24.20;;;13.90;99.90;;;;;;4900463;29;20521;-74
2021/06/25 04:11:11;;;;;;;24.03;20.70;;;14.00;99.90;;;;;;4899488;29;20498;-75
2021/06/25 04:13:39;;;;;;;27.13;21.20;;;13.90;99.90;;;;;;4864205;29;20466;-74
2021/06/25 04:16:08;;;;;;;20.83;17.70;;;13.90;99.90;;;;;;4881063;29;20448;-74
2021/06/25 04:18:36;;;;;;;18.30;16.50;;;13.90;99.90;;;;;;4865720;29;20458;-75
2021/06/25 04:21:05;;;;;;;18.97;15.60;;;14.00;99.90;;;;;;4898160;29;20428;-75
2021/06/25 04:23:33;;;;;;;17.50;15.80;;;14.00;99.90;;;;;;4900094;29;20501;-74
2021/06/25 04:26:03;;;;;;;16.07;14.47;;;14.00;99.90;;;;;;4899704;29;20870;-75
2021/06/25 04:28:32;;;;;;;33.60;27.07;;;14.00;99.90;;;;;;4898866;29;20442;-75
2021/06/25 04:31:03;;;;;;;32.73;27.50;;;14.00;99.90;;;;;;4880831;29;20452;-75
2021/06/25 04:33:31;;;;;;;27.30;22.83;;;14.00;99.90;;;;;;4882396;29;20439;-75
2021/06/25 04:36:00;;;;;;;21.07;16.77;;;14.00;99.90;;;;;;4882491;29;20969;-75
2021/06/25 04:38:28;;;;;;;17.47;15.67;;;14.10;99.90;;;;;;4886314;29;20825;-74
2021/06/25 04:40:58;;;;;;;18.90;15.60;;;14.10;99.90;;;;;;4880482;29;20424;-75
2021/06/25 04:43:27;;;;;;;16.40;14.53;;;14.10;99.90;;;;;;4881993;29;20470;-75
2021/06/25 04:45:55;;;;;;;17.67;14.33;;;14.10;99.90;;;;;;4879828;29;20470;-75
2021/06/25 04:48:24;;;;;;;15.20;13.60;;;14.20;99.90;;;;;;4896768;29;20496;-75
2021/06/25 04:50:52;;;;;;;15.50;13.90;;;14.20;99.90;;;;;;4898593;29;20539;-75
2021/06/25 04:53:20;;;;;;;15.53;14.03;;;14.30;99.90;;;;;;4898139;29;20515;-74
2021/06/25 04:55:48;;;;;;;17.05;15.35;;;14.30;99.90;;;;;;4896762;29;20461;-75
2021/06/25 04:58:18;;;;;;;15.93;14.37;;;14.40;99.90;;;;;;4881232;29;20292;-74
2021/06/25 05:00:47;;;;;;;16.50;14.70;;;14.50;99.90;;;;;;4867407;29;20457;-75
2021/06/25 05:03:16;;;;;;;16.60;14.83;;;14.50;99.90;;;;;;4880796;29;20438;-75
2021/06/25 05:05:45;;;;;;;16.27;14.57;;;14.60;99.90;;;;;;4887860;29;20452;-75
2021/06/25 05:08:13;;;;;;;15.00;13.50;;;14.70;99.90;;;;;;4898345;29;20229;-75
2021/06/25 05:10:42;;;;;;;14.67;13.27;;;14.70;99.90;;;;;;4903049;29;20481;-74
2021/06/25 05:13:13;;;;;;;14.07;12.57;;;14.70;99.90;;;;;;4902222;29;20446;-74
2021/06/25 05:15:42;;;;;;;15.60;13.20;;;14.80;99.90;;;;;;4884936;29;20816;-74
2021/06/25 05:18:18;;;;;;;14.43;13.13;;;14.80;99.90;;;;;;4898834;29;20446;-74
2021/06/25 05:21:06;;;;;;;15.00;13.40;;;14.80;99.90;;;;;;4898667;29;20469;-74
2021/06/25 05:23:35;;;;;;;14.57;13.20;;;14.90;99.90;;;;;;4885375;29;20540;-75
2021/06/25 05:26:04;;;;;;;14.30;12.90;;;14.90;99.90;;;;;;4903276;29;20457;-74
2021/06/25 05:28:33;;;;;;;14.13;12.73;;;15.00;99.90;;;;;;4886647;29;20425;-74
2021/06/25 05:31:04;;;;;;;14.20;12.80;;;15.00;99.90;;;;;;4903789;29;20956;-74
2021/06/25 05:33:34;;;;;;;16.23;13.47;;;15.10;99.90;;;;;;4901489;29;20447;-74
2021/06/25 05:36:03;;;;;;;13.53;12.23;;;15.20;99.90;;;;;;4886513;29;20924;-74
2021/06/25 05:38:32;;;;;;;14.17;12.70;;;15.30;99.90;;;;;;4903378;29;20938;-74
2021/06/25 05:41:00;;;;;;;13.90;12.50;;;15.40;99.90;;;;;;4905406;29;20458;-74
2021/06/25 05:43:29;;;;;;;12.87;11.67;;;15.50;99.90;;;;;;4898689;29;20799;-74
2021/06/25 05:45:59;;;;;;;15.07;13.57;;;15.70;99.90;;;;;;4898134;29;20420;-74
2021/06/25 05:48:28;;;;;;;14.60;13.20;;;15.90;99.90;;;;;;4898357;29;20858;-74
2021/06/25 05:50:58;;;;;;;14.10;12.60;;;16.10;99.90;;;;;;4898580;29;20955;-75
2021/06/25 05:53:26;;;;;;;13.00;11.70;;;16.20;99.90;;;;;;4898452;29;20446;-75
2021/06/25 05:55:55;;;;;;;15.40;13.97;;;16.50;99.90;;;;;;4881345;29;20465;-75
2021/06/25 05:58:23;;;;;;;12.70;11.43;;;16.70;99.90;;;;;;4898559;29;20414;-75
2021/06/25 06:00:51;;;;;;;12.43;11.13;;;16.90;99.90;;;;;;4898367;29;20470;-74
2021/06/25 06:03:20;;;;;;;12.50;11.20;;;17.20;99.90;;;;;;4896802;29;20940;-75
2021/06/25 06:05:48;;;;;;;12.20;11.00;;;17.40;99.90;;;;;;4898186;29;20447;-75
2021/06/25 06:08:18;;;;;;;12.85;11.57;;;17.60;99.90;;;;;;4898187;29;20553;-75
2021/06/25 06:10:46;;;;;;;10.10;9.10;;;17.80;99.90;;;;;;4881515;29;20271;-75
2021/06/25 06:13:14;;;;;;;10.13;9.13;;;18.10;99.90;;;;;;4897134;29;20460;-75
2021/06/25 06:15:43;;;;;;;10.37;9.30;;;18.20;99.90;;;;;;4898593;29;20472;-75
2021/06/25 06:18:18;;;;;;;10.80;9.70;;;18.40;99.90;;;;;;4898107;29;20995;-75
2021/06/25 06:20:46;;;;;;;10.07;9.10;;;18.50;99.90;;;;;;4898734;29;20215;-75
2021/06/25 06:31:34;;;;;;;10.93;9.77;;;19.10;99.90;;;;;;4898996;29;20542;-75
2021/06/25 06:34:08;;;;;;;11.17;9.63;;;19.10;99.90;;;;;;4898681;29;20811;-75
2021/06/25 06:36:41;;;;;;;11.20;10.20;;;19.10;99.90;;;;;;4898839;29;20749;-75
2021/06/25 06:39:10;;;;;;;11.20;10.03;;;19.00;99.90;;;;;;4881696;29;20479;-75
2021/06/25 06:41:40;;;;;;;10.80;9.80;;;18.90;99.90;;;;;;4899748;29;21011;-75
2021/06/25 06:44:09;;;;;;;11.57;10.37;;;18.90;99.90;;;;;;4902295;29;20522;-75
2021/06/25 06:46:37;;;;;;;11.90;10.70;;;18.90;99.90;;;;;;4902145;29;20451;-75
2021/06/25 06:49:07;;;;;;;11.60;10.40;;;18.90;99.90;;;;;;4901689;29;20523;-75
2021/06/25 06:51:36;;;;;;;11.67;10.60;;;18.90;99.90;;;;;;4900370;29;20470;-75
2021/06/25 06:54:05;;;;;;;12.73;11.00;;;19.10;99.90;;;;;;4903141;29;20440;-75
2021/06/25 06:56:34;;;;;;;11.37;10.17;;;19.30;99.90;;;;;;4900062;29;20460;-75
2021/06/25 06:59:04;;;;;;;11.60;10.60;;;19.50;99.90;;;;;;4902600;29;20496;-75
2021/06/25 07:01:32;;;;;;;12.33;11.03;;;19.70;99.90;;;;;;4884394;29;20456;-75
2021/06/25 07:04:20;;;;;;;11.67;10.37;;;20.00;99.90;;;;;;4901601;29;20512;-75
2021/06/25 07:06:49;;;;;;;11.83;10.63;;;20.20;99.90;;;;;;4902318;29;20452;-75
2021/06/25 07:09:17;;;;;;;12.47;10.37;;;20.40;99.90;;;;;;4901505;29;20516;-75
2021/06/25 07:11:45;;;;;;;13.13;11.10;;;20.60;99.90;;;;;;4900249;29;21002;-75
2021/06/25 07:14:15;;;;;;;11.03;9.93;;;20.70;99.90;;;;;;4883981;29;20966;-74
2021/06/25 07:16:43;;;;;;;10.88;9.90;;;20.80;99.90;;;;;;4898808;29;20516;-75
2021/06/25 07:19:12;;;;;;;11.03;10.00;;;21.10;99.90;;;;;;4902308;29;20219;-75
2021/06/25 07:21:40;;;;;;;8.97;8.03;;;21.20;99.90;;;;;;4884010;29;20864;-75
2021/06/25 07:24:09;;;;;;;10.27;9.47;;;21.30;99.90;;;;;;4901040;29;20475;-74
2021/06/25 07:26:39;;;;;;;10.50;9.57;;;21.40;99.90;;;;;;4902760;29;20436;-75
2021/06/25 07:29:09;;;;;;;10.80;9.07;;;21.40;99.90;;;;;;4901220;29;20547;-75
2021/06/25 07:31:39;;;;;;;23.17;10.97;;;21.40;99.90;;;;;;4901679;29;20563;-75
2021/06/25 07:34:07;;;;;;;11.33;10.23;;;21.30;99.90;;;;;;4900942;29;20951;-75
2021/06/25 07:36:35;;;;;;;7.93;7.23;;;21.40;99.90;;;;;;4900764;29;21006;-74
2021/06/25 07:39:06;;;;;;;8.20;7.23;;;21.40;99.90;;;;;;4902266;29;20473;-75
2021/06/25 07:41:35;;;;;;;9.60;8.70;;;21.40;99.90;;;;;;4900986;29;20861;-75
2021/06/25 07:44:03;;;;;;;9.73;8.73;;;21.40;99.90;;;;;;4900552;29;20440;-75
2021/06/25 07:46:31;;;;;;;9.00;8.20;;;21.40;99.90;;;;;;4900841;29;20471;-75
2021/06/25 07:49:02;;;;;;;8.30;7.47;;;21.40;99.90;;;;;;4900754;29;20457;-76
2021/06/25 07:51:32;;;;;;;9.13;8.33;;;21.40;99.90;;;;;;4903303;29;21067;-76
2021/06/25 07:54:00;;;;;;;10.97;9.90;;;21.40;99.90;;;;;;4900160;29;20539;-76
2021/06/25 07:56:28;;;;;;;10.00;8.83;;;21.50;99.90;;;;;;4902316;29;20459;-76
2021/06/25 07:58:57;;;;;;;9.60;8.67;;;21.60;99.90;;;;;;4900916;29;20523;-77
2021/06/25 08:01:25;;;;;;;11.57;10.20;;;21.60;99.90;;;;;;4900016;29;20949;-77
2021/06/25 08:03:54;;;;;;;9.90;8.90;;;21.70;99.90;;;;;;4903644;29;20441;-77
2021/06/25 08:06:24;;;;;;;10.80;9.80;;;21.80;99.90;;;;;;4900986;29;20484;-78
2021/06/25 08:08:52;;;;;;;9.97;9.07;;;21.90;99.90;;;;;;4900221;29;20995;-77
2021/06/25 08:11:20;;;;;;;11.27;10.10;;;22.10;99.90;;;;;;4904520;29;20465;-78
2021/06/25 08:13:49;;;;;;;20.80;11.80;;;22.10;99.90;;;;;;4899564;29;20456;-77
2021/06/25 08:16:21;;;;;;;14.03;12.73;;;22.20;99.90;;;;;;4902310;29;20516;-78
2021/06/25 08:18:51;;;;;;;12.50;11.17;;;22.30;99.90;;;;;;4886152;29;20469;-79
2021/06/25 08:21:19;;;;;;;14.00;12.70;;;22.40;99.90;;;;;;4903106;29;20455;-78
2021/06/25 08:23:52;;;;;;;13.20;12.00;;;22.60;99.40;;;;;;4890307;29;20261;-79
2021/06/25 08:26:20;;;;;;;14.03;12.63;;;22.90;99.40;;;;;;4903251;29;20422;-79
2021/06/25 08:28:49;;;;;;;12.90;11.73;;;23.00;99.30;;;;;;4885765;29;20466;-79
2021/06/25 08:31:18;;;;;;;12.40;11.33;;;23.10;99.10;;;;;;4904167;29;20540;-78
2021/06/25 08:33:46;;;;;;;13.02;11.85;;;23.20;99.10;;;;;;4901356;29;20456;-78
2021/06/25 10:12:06;;;;;;;;;;;;;;;;;;;;;
2021/06/25 10:14:56;;;;;;;16.40;14.97;;;23.90;94.80;;;;;;6161424;23;20510;-75
2021/06/25 10:17:27;;;;;;;14.27;12.90;;;24.00;94.70;;;;;;6234669;22;20402;-75
2021/06/25 10:20:05;;;;;;;16.38;14.98;;;24.10;94.50;;;;;;6223636;23;20408;-75
2021/06/25 10:22:34;;;;;;;13.73;12.50;;;24.30;93.00;;;;;;6222633;23;20547;-75
2021/06/25 10:25:04;;;;;;;13.23;12.13;;;24.30;93.00;;;;;;6234828;23;20505;-75
2021/06/25 10:27:35;;;;;;;12.27;11.10;;;24.40;92.80;;;;;;6222238;23;20520;-77
2021/06/25 10:30:06;;;;;;;10.00;9.10;;;24.40;92.60;;;;;;6222507;23;20441;-76
2021/06/25 10:32:38;;;;;;;9.70;8.80;;;24.30;92.50;;;;;;6233839;22;20388;-76
2021/06/25 10:35:11;;;;;;;7.20;6.70;;;24.30;90.80;;;;;;6234582;23;20158;-77
2021/06/25 10:37:41;;;;;;;8.77;7.87;;;24.20;91.00;;;;;;6222510;23;20407;-77
2021/06/25 10:40:26;;;;;;;12.17;11.07;;;24.20;91.00;;;;;;6234163;23;20421;-77
2021/06/25 10:42:56;;;;;;;13.50;12.30;;;24.20;90.80;;;;;;6222666;23;20442;-76
2021/06/25 10:45:41;;;;;;;13.13;12.03;;;24.20;90.60;;;;;;6222278;23;20989;-75
2021/06/25 10:48:09;;;;;;;12.90;11.80;;;24.10;90.40;;;;;;6222484;23;20434;-75
2021/06/25 10:50:38;;;;;;;11.57;10.53;;;24.00;90.50;;;;;;6233954;22;20445;-76
2021/06/25 10:53:19;;;;;;;12.97;11.50;;;24.00;90.40;;;;;;6223896;23;20444;-76
2021/06/25 10:56:07;;;;;;;11.53;10.57;;;24.00;90.40;;;;;;6220212;23;20391;-76
2021/06/25 10:58:36;;;;;;;10.77;9.87;;;24.00;90.20;;;;;;6227402;23;20707;-76
2021/06/25 11:01:07;;;;;;;11.57;10.57;;;24.00;90.30;;;;;;6227057;23;20458;-76
2021/06/25 11:03:48;;;;;;;11.47;10.37;;;24.00;90.10;;;;;;6215264;23;20411;-76
2021/06/25 11:06:53;;;;;;;12.07;11.00;;;24.00;89.60;;;;;;6217123;23;20395;-77
2021/06/25 11:09:21;;;;;;;11.90;10.90;;;24.00;88.80;;;;;;6215266;23;20443;-77
2021/06/25 11:12:13;;;;;;;9.57;8.80;;;24.00;88.90;;;;;;6215239;23;20429;-77
2021/06/25 11:14:42;;;;;;;12.10;11.00;;;24.10;88.70;;;;;;6227122;23;20834;-77
2021/06/25 11:17:11;;;;;;;9.57;8.70;;;24.10;88.50;;;;;;6213908;23;20402;-77
2021/06/25 11:19:41;;;;;;;8.30;7.47;;;24.30;84.40;;;;;;6215296;23;20218;-77
2021/06/25 11:22:36;;;;;;;9.50;8.60;;;24.30;84.10;;;;;;6215369;23;20457;-77
2021/06/25 11:25:11;;;;;;;8.87;7.90;;;24.30;84.00;;;;;;6215211;23;20497;-76
2021/06/25 11:28:18;;;;;;;9.40;8.70;;;24.30;84.40;;;;;;6227024;23;20474;-77
2021/06/25 11:31:05;;;;;;;10.20;9.40;;;24.30;84.60;;;;;;6226873;23;20419;-76
2021/06/25 11:33:49;;;;;;;10.87;9.87;;;24.40;84.80;;;;;;6215263;23;20851;-76
2021/06/25 11:36:32;;;;;;;9.40;8.67;;;24.40;84.60;;;;;;6215500;23;20417;-76
2021/06/25 11:39:28;;;;;;;12.60;11.40;;;24.40;84.70;;;;;;6216587;23;20967;-76
2021/06/25 11:41:58;;;;;;;10.53;9.63;;;24.40;84.90;;;;;;6217159;23;20407;-76
2021/06/25 11:44:28;;;;;;;12.07;11.10;;;24.40;84.60;;;;;;6215425;23;20796;-76
2021/06/25 11:47:01;;;;;;;10.10;9.33;;;24.40;83.60;;;;;;6226745;23;20708;-76
2021/06/25 11:49:37;;;;;;;13.47;12.07;;;24.30;83.40;;;;;;6215329;23;20929;-76
2021/06/25 11:52:08;;;;;;;11.47;10.47;;;24.20;83.50;;;;;;6215081;23;20453;-76
2021/06/25 11:54:37;;;;;;;12.13;11.13;;;24.20;83.70;;;;;;6226639;23;20402;-76
2021/06/25 11:57:14;;;;;;;11.90;10.80;;;24.20;84.00;;;;;;6226497;23;20438;-76
2021/06/25 11:59:53;;;;;;;10.77;9.87;;;24.20;83.80;;;;;;6226741;23;20525;-75
2021/06/25 12:02:22;;;;;;;12.23;11.23;;;24.20;83.70;;;;;;6214945;23;20792;-76
2021/06/25 12:04:51;;;;;;;11.80;10.80;;;24.20;83.40;;;;;;6214759;23;20441;-76
2021/06/25 12:07:20;;;;;;;10.70;9.70;;;24.20;82.90;;;;;;6214396;23;20898;-76
2021/06/25 12:09:50;;;;;;;12.73;11.63;;;24.20;82.60;;;;;;6214808;23;20455;-76
2021/06/25 12:12:25;;;;;;;10.73;9.93;;;24.20;82.30;;;;;;6226204;23;20492;-75
2021/06/25 12:14:56;;;;;;;10.20;9.40;;;24.30;81.20;;;;;;6227681;23;20163;-76
2021/06/25 12:17:25;;;;;;;9.60;8.80;;;24.30;81.50;;;;;;6226875;23;20467;-77
2021/06/25 12:20:04;;;;;;;10.27;9.37;;;24.40;81.30;;;;;;6226730;23;20419;-77
2021/06/25 12:22:47;;;;;;;9.60;8.80;;;24.40;80.90;;;;;;6214868;23;20498;-76
2021/06/25 12:25:16;;;;;;;8.93;8.23;;;24.50;80.40;;;;;;6214715;23;20469;-77
2021/06/25 12:27:44;;;;;;;11.57;10.60;;;24.50;80.80;;;;;;6214665;23;20461;-77
2021/06/25 12:30:15;;;;;;;10.90;9.90;;;24.50;80.90;;;;;;6216914;23;20426;-77
2021/06/25 12:32:44;;;;;;;20.50;18.70;;;24.50;81.00;;;;;;6214893;23;20446;-77
2021/06/25 12:35:13;;;;;;;13.73;12.43;;;24.60;80.70;;;;;;6215448;23;20407;-76
2021/06/25 12:37:53;;;;;;;13.27;12.00;;;24.60;80.20;;;;;;6214759;23;20411;-77
2021/06/25 12:40:49;;;;;;;10.80;9.90;;;24.70;80.50;;;;;;6214559;23;20469;-76
2021/06/25 12:43:21;;;;;;;14.97;13.77;;;24.70;80.20;;;;;;6214848;23;20482;-76
2021/06/25 12:45:51;;;;;;;12.03;11.03;;;24.80;80.50;;;;;;6214449;23;20521;-76
2021/06/25 12:48:37;;;;;;;14.77;13.57;;;24.80;80.40;;;;;;6214599;23;20442;-76
2021/06/25 12:51:11;;;;;;;11.50;10.70;;;24.80;80.10;;;;;;6215401;23;20407;-77
2021/06/25 12:53:41;;;;;;;12.27;11.17;;;24.80;79.90;;;;;;6214580;23;20507;-77
2021/06/25 12:56:13;;;;;;;10.30;9.40;;;24.70;79.80;;;;;;6214590;23;20465;-77
2021/06/25 12:58:43;;;;;;;9.83;9.13;;;24.70;79.60;;;;;;6214822;23;20407;-77
2021/06/25 13:01:12;;;;;;;10.43;9.70;;;24.60;79.40;;;;;;6216141;23;20453;-77
2021/06/25 13:03:44;;;;;;;9.30;8.50;;;24.60;79.50;;;;;;6215263;23;20859;-77
2021/06/25 13:06:29;;;;;;;9.60;8.90;;;24.70;79.70;;;;;;6214266;23;20522;-76
2021/06/25 13:08:59;;;;;;;10.17;9.33;;;24.70;79.10;;;;;;6226929;23;20443;-77
2021/06/25 13:11:29;;;;;;;9.30;8.60;;;24.70;79.20;;;;;;6214361;23;20425;-76
2021/06/25 13:13:58;;;;;;;9.53;8.70;;;24.80;78.90;;;;;;6226968;23;20438;-77
2021/06/25 13:16:27;;;;;;;9.63;8.87;;;24.80;79.20;;;;;;6227406;23;20450;-77
2021/06/25 13:19:00;;;;;;;10.23;9.40;;;24.80;78.80;;;;;;6218157;23;20996;-77
2021/06/25 13:22:02;;;;;;;8.83;8.13;;;24.70;78.50;;;;;;6217526;23;20421;-79
2021/06/25 13:24:53;;;;;;;8.97;8.27;;;24.70;78.20;;;;;;6231750;23;20383;-78
2021/06/25 13:27:21;;;;;;;9.23;8.43;;;24.70;78.50;;;;;;6230135;23;20842;-78
2021/06/25 13:29:53;;;;;;;10.00;9.20;;;24.70;78.30;;;;;;6230864;23;20799;-78
2021/06/25 13:32:23;;;;;;;8.00;7.40;;;24.70;78.00;;;;;;6229315;23;20748;-78
2021/06/25 13:35:05;;;;;;;7.63;7.10;;;24.60;77.90;;;;;;6218010;23;20744;-78
2021/06/25 13:37:47;;;;;;;8.90;8.20;;;24.70;78.00;;;;;;6218914;23;20407;-78
2021/06/25 13:40:19;;;;;;;8.23;7.63;;;24.70;77.80;;;;;;6217688;23;20427;-78
2021/06/25 13:43:11;;;;;;;8.80;8.00;;;24.70;77.70;;;;;;6215897;23;20419;-78
2021/06/25 13:45:40;;;;;;;8.90;8.30;;;24.70;77.70;;;;;;6231271;23;20794;-78
2021/06/25 13:48:20;;;;;;;7.73;7.23;;;24.70;77.40;;;;;;6216091;23;20407;-78
2021/06/25 13:50:51;;;;;;;8.37;7.77;;;24.70;76.80;;;;;;6227861;23;20506;-78
2021/06/25 13:53:35;;;;;;;8.77;8.07;;;24.70;76.60;;;;;;6229236;23;20407;-78
2021/06/25 13:56:07;;;;;;;12.50;7.50;;;24.60;76.10;;;;;;6218260;23;20473;-78
2021/06/25 13:58:51;;;;;;;7.27;6.67;;;24.60;76.30;;;;;;6230033;23;20715;-79
2021/06/25 14:01:21;;;;;;;6.87;6.37;;;24.70;75.90;;;;;;6218070;23;20407;-78
2021/06/25 14:03:55;;;;;;;8.63;6.73;;;24.70;76.10;;;;;;6218159;23;20442;-79
2021/06/25 14:06:24;;;;;;;6.73;6.20;;;24.70;76.70;;;;;;6218764;23;20987;-79
2021/06/25 14:08:57;;;;;;;7.70;7.10;;;24.70;76.20;;;;;;6228366;23;20497;-78
2021/06/25 14:11:28;;;;;;;7.43;6.80;;;24.70;75.90;;;;;;6216777;23;20506;-78
2021/06/25 14:14:05;;;;;;;6.60;6.20;;;24.70;76.10;;;;;;6228828;23;20388;-78
2021/06/25 14:16:34;;;;;;;7.80;7.00;;;24.70;76.10;;;;;;6227970;23;20384;-76
2021/06/25 14:19:06;;;;;;;7.47;6.77;;;24.80;76.20;;;;;;6215007;23;20738;-76
2021/06/25 14:21:36;;;;;;;7.50;6.90;;;24.90;76.20;;;;;;6225582;23;20391;-77
2021/06/25 14:24:08;;;;;;;7.17;6.57;;;24.80;75.90;;;;;;6213882;23;20450;-76
2021/06/25 14:26:36;;;;;;;7.07;6.50;;;24.80;75.60;;;;;;6213205;23;20474;-76
2021/06/25 14:29:06;;;;;;;7.77;7.17;;;24.70;75.50;;;;;;6213836;23;20462;-76
2021/06/25 14:31:35;;;;;;;8.57;7.77;;;24.70;75.30;;;;;;6217224;23;20415;-77
2021/06/25 14:34:03;;;;;;;7.00;6.50;;;24.70;75.30;;;;;;6220538;23;20909;-78
2021/06/25 14:36:32;;;;;;;7.20;6.70;;;24.70;75.40;;;;;;6229695;23;20535;-78
2021/06/25 14:39:00;;;;;;;7.60;7.00;;;24.60;75.10;;;;;;6218384;23;20464;-77
2021/06/25 14:41:29;;;;;;;8.03;7.33;;;24.60;75.30;;;;;;6219135;23;20897;-78
2021/06/25 14:43:58;;;;;;;7.20;6.53;;;24.50;75.30;;;;;;6218864;23;20419;-76
2021/06/25 14:46:29;;;;;;;6.90;6.30;;;24.40;75.60;;;;;;6232847;23;20442;-81
2021/06/25 14:48:57;;;;;;;6.77;6.17;;;24.30;75.60;;;;;;6218162;23;20438;-80
2021/06/25 14:51:25;;;;;;;8.10;7.50;;;24.30;75.60;;;;;;6220995;23;20422;-76
2021/06/25 14:53:53;;;;;;;6.10;5.60;;;24.30;76.00;;;;;;6230627;23;20445;-75
2021/06/25 14:56:22;;;;;;;5.80;5.30;;;24.40;76.00;;;;;;6215972;23;20409;-78
2021/06/25 14:58:52;;;;;;;6.50;6.00;;;24.50;75.80;;;;;;6217393;23;20425;-74
2021/06/25 15:01:20;;;;;;;5.93;5.53;;;24.70;75.40;;;;;;6220185;23;20171;-76
2021/06/25 15:03:50;;;;;;;6.23;5.80;;;24.80;75.50;;;;;;6220722;23;20415;-75
2021/06/25 15:06:18;;;;;;;6.73;6.23;;;24.80;75.90;;;;;;6226920;23;20427;-77
2021/06/25 15:08:46;;;;;;;5.57;5.17;;;24.80;75.20;;;;;;6215600;23;20502;-75
2021/06/25 15:11:15;;;;;;;5.80;5.30;;;24.80;74.90;;;;;;6214944;23;20485;-75
2021/06/25 15:13:44;;;;;;;5.80;5.30;;;24.80;75.10;;;;;;6216943;23;20415;-76
2021/06/25 15:16:14;;;;;;;6.27;5.67;;;24.70;74.90;;;;;;6226848;23;20380;-74
2021/06/25 15:18:43;;;;;;;6.40;5.90;;;24.70;75.00;;;;;;6227238;23;20399;-76
2021/06/25 15:21:11;;;;;;;7.03;6.53;;;24.70;75.10;;;;;;6215235;23;20916;-76
2021/06/25 15:23:39;;;;;;;6.00;5.50;;;24.80;75.00;;;;;;6215279;23;20419;-77